createdAt,value
2018-02-19T00:02:29.370Z,0.03
2018-02-19T00:05:00.390Z,0.05
2018-02-19T00:07:31.331Z,0.05
2018-02-19T00:10:02.384Z,0.03
2018-02-19T00:12:33.376Z,0.04
2018-02-19T00:15:04.412Z,0.04
2018-02-19T00:17:35.392Z,0.07
2018-02-19T00:20:06.425Z,0.05
2018-02-19T00:22:37.400Z,0.02
2018-02-19T00:25:08.422Z,0.02
2018-02-19T00:27:39.392Z,0.00
2018-02-19T00:30:10.394Z,0.01
2018-02-19T00:32:41.389Z,0.01
2018-02-19T00:35:12.413Z,0.03
2018-02-19T00:37:43.367Z,0.04
2018-02-19T00:40:14.407Z,-0.02
2018-02-19T00:42:45.407Z,-0.02
2018-02-19T00:45:16.454Z,-0.03
2018-02-19T00:47:47.436Z,-0.02
2018-02-19T00:50:18.496Z,-0.04
2018-02-19T00:52:49.449Z,-0.05
2018-02-19T00:55:20.531Z,-0.06
2018-02-19T00:57:51.505Z,-0.11
2018-02-19T01:00:22.822Z,-0.16
2018-02-19T01:02:53.758Z,-0.14
2018-02-19T01:05:24.838Z,-0.11
2018-02-19T01:07:55.810Z,-0.16
2018-02-19T01:10:26.825Z,-0.14
2018-02-19T01:12:57.844Z,-0.15
2018-02-19T01:15:28.810Z,-0.17
2018-02-19T01:17:59.820Z,-0.16
2018-02-19T01:20:30.874Z,-0.20
2018-02-19T01:23:01.859Z,-0.28
2018-02-19T01:25:32.908Z,-0.33
2018-02-19T01:28:03.878Z,-0.34
2018-02-19T01:30:34.903Z,-0.36
2018-02-19T01:33:05.857Z,-0.31
2018-02-19T01:35:36.941Z,-0.30
2018-02-19T01:38:07.918Z,-0.29
2018-02-19T01:40:38.955Z,-0.30
2018-02-19T01:43:09.963Z,-0.31
2018-02-19T01:45:40.948Z,-0.36
2018-02-19T01:48:11.948Z,-0.37
2018-02-19T01:50:42.932Z,-0.35
2018-02-19T01:53:13.922Z,-0.37
2018-02-19T01:55:44.927Z,-0.43
2018-02-19T01:58:15.937Z,-0.44
2018-02-19T02:00:47.032Z,-0.42
2018-02-19T02:03:18.041Z,-0.44
2018-02-19T02:05:49.007Z,-0.44
2018-02-19T02:08:20.012Z,-0.44
2018-02-19T02:10:50.967Z,-0.40
2018-02-19T02:13:22.046Z,-0.42
2018-02-19T02:15:53.009Z,-0.42
2018-02-19T02:18:24.077Z,-0.42
2018-02-19T02:20:55.049Z,-0.40
2018-02-19T02:23:26.068Z,-0.43
2018-02-19T02:25:57.354Z,-0.42
2018-02-19T02:28:28.352Z,-0.41
2018-02-19T02:30:59.350Z,-0.42
2018-02-19T02:33:30.377Z,-0.44
2018-02-19T02:36:01.353Z,-0.45
2018-02-19T02:38:32.346Z,-0.50
2018-02-19T02:41:03.303Z,-0.52
2018-02-19T02:43:34.373Z,-0.51
2018-02-19T02:46:05.316Z,-0.52
2018-02-19T02:48:36.314Z,-0.50
2018-02-19T02:51:07.332Z,-0.49
2018-02-19T02:53:38.365Z,-0.50
2018-02-19T02:56:09.347Z,-0.55
2018-02-19T02:58:40.305Z,-0.51
2018-02-19T03:01:11.357Z,-0.50
2018-02-19T03:03:42.330Z,-0.50
2018-02-19T03:06:13.411Z,-0.50
2018-02-19T03:08:44.432Z,-0.49
2018-02-19T03:11:15.400Z,-0.55
2018-02-19T03:13:46.367Z,-0.54
2018-02-19T03:16:17.357Z,-0.52
2018-02-19T03:18:48.353Z,-0.55
2018-02-19T03:21:19.326Z,-0.57
2018-02-19T03:23:50.306Z,-0.56
2018-02-19T03:26:21.249Z,-0.57
2018-02-19T03:28:52.248Z,-0.56
2018-02-19T03:31:23.234Z,-0.56
2018-02-19T03:33:54.229Z,-0.53
2018-02-19T03:36:25.270Z,-0.54
2018-02-19T03:38:56.280Z,-0.60
2018-02-19T03:41:27.279Z,-0.58
2018-02-19T03:43:58.247Z,-0.60
2018-02-19T03:46:29.248Z,-0.61
2018-02-19T03:49:00.200Z,-0.63
2018-02-19T03:51:31.146Z,-0.60
2018-02-19T03:54:02.211Z,-0.63
2018-02-19T03:56:33.151Z,-0.63
2018-02-19T03:59:04.113Z,-0.63
2018-02-19T04:01:35.143Z,-0.69
2018-02-19T04:04:06.169Z,-0.70
2018-02-19T04:06:37.181Z,-0.73
2018-02-19T04:09:08.122Z,-0.74
2018-02-19T04:11:39.115Z,-0.78
2018-02-19T04:14:10.076Z,-0.79
2018-02-19T04:16:41.263Z,-0.83
2018-02-19T04:19:12.285Z,-0.86
2018-02-19T04:21:43.321Z,-0.86
2018-02-19T04:24:14.296Z,-0.87
2018-02-19T04:26:45.414Z,-0.85
2018-02-19T04:29:16.410Z,-0.85
2018-02-19T04:31:47.426Z,-0.86
2018-02-19T04:34:18.422Z,-0.89
2018-02-19T04:36:49.419Z,-0.90
2018-02-19T04:39:20.352Z,-0.89
2018-02-19T04:41:51.340Z,-0.91
2018-02-19T04:44:36.323Z,-0.93
2018-02-19T04:47:07.376Z,-0.95
2018-02-19T04:49:38.347Z,-0.98
2018-02-19T04:52:09.394Z,-1.02
2018-02-19T04:54:40.389Z,-1.04
2018-02-19T04:57:11.402Z,-1.05
2018-02-19T04:59:42.413Z,-1.05
2018-02-19T05:02:13.408Z,-1.07
2018-02-19T05:04:44.389Z,-1.07
2018-02-19T05:07:15.402Z,-1.13
2018-02-19T05:09:46.367Z,-1.14
2018-02-19T05:12:17.410Z,-1.13
2018-02-19T05:14:48.381Z,-1.15
2018-02-19T05:17:19.489Z,-1.15
2018-02-19T05:19:50.491Z,-1.15
2018-02-19T05:22:21.461Z,-1.16
2018-02-19T05:24:52.442Z,-1.16
2018-02-19T05:27:23.519Z,-1.14
2018-02-19T05:29:54.516Z,-1.13
2018-02-19T05:32:25.528Z,-1.16
2018-02-19T05:34:56.551Z,-1.19
2018-02-19T05:37:27.557Z,-1.21
2018-02-19T05:39:58.538Z,-1.21
2018-02-19T05:42:29.579Z,-1.22
2018-02-19T05:45:00.619Z,-1.26
2018-02-19T05:47:31.614Z,-1.27
2018-02-19T05:50:02.695Z,-1.27
2018-02-19T05:52:33.664Z,-1.31
2018-02-19T05:55:04.648Z,-1.25
2018-02-19T05:57:35.718Z,-1.22
2018-02-19T06:00:06.713Z,-1.08
2018-02-19T06:02:37.695Z,-0.90
2018-02-19T06:05:08.688Z,-0.59
2018-02-19T06:07:39.688Z,-0.30
2018-02-19T06:10:10.787Z,0.02
2018-02-19T06:12:41.724Z,0.27
2018-02-19T06:15:12.725Z,0.38
2018-02-19T06:17:43.941Z,0.46
2018-02-19T06:20:14.923Z,0.58
2018-02-19T06:22:45.945Z,0.63
2018-02-19T06:25:16.980Z,0.75
2018-02-19T06:27:48.182Z,0.90
2018-02-19T06:30:19.169Z,1.07
2018-02-19T06:32:50.210Z,1.13
2018-02-19T06:35:21.179Z,1.16
2018-02-19T06:37:52.181Z,1.21
2018-02-19T06:40:23.175Z,1.37
2018-02-19T06:42:54.256Z,1.44
2018-02-19T06:45:25.230Z,1.56
2018-02-19T06:47:56.275Z,1.71
2018-02-19T06:50:27.270Z,1.87
2018-02-19T06:52:58.316Z,1.85
2018-02-19T06:55:29.342Z,1.87
2018-02-19T06:58:00.392Z,1.97
2018-02-19T07:00:31.364Z,2.04
2018-02-19T07:03:02.377Z,1.98
2018-02-19T07:05:33.380Z,1.87
2018-02-19T07:08:04.410Z,1.82
2018-02-19T07:10:35.420Z,1.81
2018-02-19T07:13:06.480Z,1.85
2018-02-19T07:15:37.485Z,1.71
2018-02-19T07:18:08.620Z,1.69
2018-02-19T07:20:39.645Z,1.76
2018-02-19T07:23:10.648Z,1.84
2018-02-19T07:25:41.718Z,1.94
2018-02-19T07:28:12.738Z,1.99
2018-02-19T07:30:43.727Z,2.12
2018-02-19T07:33:14.735Z,2.32
2018-02-19T07:35:45.763Z,2.59
2018-02-19T07:38:16.753Z,2.77
2018-02-19T07:40:47.804Z,3.00
2018-02-19T07:43:18.795Z,3.14
2018-02-19T07:45:49.860Z,3.23
2018-02-19T07:48:20.834Z,3.31
2018-02-19T07:50:51.849Z,3.53
2018-02-19T07:53:22.895Z,3.59
2018-02-19T07:55:53.879Z,3.54
2018-02-19T07:58:24.886Z,3.52
2018-02-19T08:00:55.891Z,3.49
2018-02-19T08:03:26.944Z,3.62
2018-02-19T08:05:57.915Z,3.86
2018-02-19T08:08:28.937Z,3.86
2018-02-19T08:10:59.945Z,3.85
2018-02-19T08:13:30.968Z,3.93
2018-02-19T08:16:01.947Z,3.90
2018-02-19T08:18:33.030Z,3.96
2018-02-19T08:21:04.058Z,4.05
2018-02-19T08:23:35.051Z,4.03
2018-02-19T08:26:06.067Z,4.20
2018-02-19T08:28:37.046Z,4.39
2018-02-19T08:31:08.074Z,4.55
2018-02-19T08:33:39.084Z,4.66
2018-02-19T08:36:10.083Z,4.70
2018-02-19T08:38:41.091Z,4.64
2018-02-19T08:41:12.070Z,4.53
2018-02-19T08:43:49.955Z,4.68
2018-02-19T08:46:20.976Z,4.87
2018-02-19T08:48:52.085Z,4.88
2018-02-19T08:51:23.125Z,4.92
2018-02-19T08:53:54.121Z,5.28
2018-02-19T08:56:25.127Z,5.36
2018-02-19T08:58:56.165Z,5.20
2018-02-19T09:01:27.211Z,5.12
2018-02-19T09:03:58.151Z,4.99
2018-02-19T09:06:29.186Z,5.24
2018-02-19T09:09:00.210Z,5.38
2018-02-19T09:11:31.243Z,5.36
2018-02-19T09:14:02.283Z,5.50
2018-02-19T09:16:33.289Z,5.55
2018-02-19T09:19:04.271Z,5.46
2018-02-19T09:21:35.297Z,5.33
2018-02-19T09:24:06.360Z,5.55
2018-02-19T09:26:37.315Z,5.73
2018-02-19T09:29:08.350Z,5.75
2018-02-19T09:31:39.325Z,5.49
2018-02-19T09:34:10.418Z,5.52
2018-02-19T09:36:41.375Z,5.45
2018-02-19T09:39:12.402Z,5.46
2018-02-19T09:41:43.480Z,5.44
2018-02-19T09:44:14.444Z,5.32
2018-02-19T09:46:45.417Z,5.22
2018-02-19T09:49:16.468Z,5.30
2018-02-19T09:51:47.490Z,5.49
2018-02-19T09:54:18.505Z,5.46
2018-02-19T09:56:49.500Z,5.57
2018-02-19T09:59:20.550Z,5.86
2018-02-19T10:01:51.551Z,5.98
2018-02-19T10:04:22.615Z,6.02
2018-02-19T10:06:53.672Z,5.87
2018-02-19T10:09:24.650Z,5.96
2018-02-19T10:11:55.655Z,5.91
2018-02-19T10:14:27.592Z,5.89
2018-02-19T10:16:58.650Z,6.04
2018-02-19T10:19:29.683Z,6.38
2018-02-19T10:22:00.735Z,6.61
2018-02-19T10:24:31.775Z,6.57
2018-02-19T10:27:02.752Z,6.46
2018-02-19T10:29:33.796Z,6.44
2018-02-19T10:32:04.797Z,6.25
2018-02-19T10:34:35.835Z,6.23
2018-02-19T10:37:06.918Z,6.14
2018-02-19T10:39:37.929Z,6.14
2018-02-19T10:42:08.969Z,6.04
2018-02-19T10:44:40.084Z,5.82
2018-02-19T10:47:11.127Z,5.76
2018-02-19T10:49:42.136Z,5.98
2018-02-19T10:52:13.148Z,6.13
2018-02-19T10:54:44.169Z,6.27
2018-02-19T10:57:15.250Z,6.19
2018-02-19T10:59:53.208Z,5.95
2018-02-19T11:02:24.208Z,5.73
2018-02-19T11:04:55.255Z,5.97
2018-02-19T11:07:26.256Z,6.36
2018-02-19T11:09:57.268Z,6.64
2018-02-19T11:12:28.270Z,6.60
2018-02-19T11:14:59.314Z,6.46
2018-02-19T11:17:30.280Z,6.37
2018-02-19T11:20:01.319Z,6.20
2018-02-19T11:22:32.311Z,6.15
2018-02-19T11:25:03.334Z,6.28
2018-02-19T11:27:34.313Z,6.57
2018-02-19T11:30:05.351Z,6.65
2018-02-19T11:32:36.300Z,6.70
2018-02-19T11:35:07.327Z,6.44
2018-02-19T11:37:38.319Z,6.51
2018-02-19T11:40:09.311Z,6.56
2018-02-19T11:42:40.453Z,6.44
2018-02-19T11:45:11.459Z,6.58
2018-02-19T11:47:42.468Z,6.58
2018-02-19T11:50:13.446Z,6.57
2018-02-19T11:52:44.487Z,6.81
2018-02-19T11:55:15.497Z,6.87
2018-02-19T11:57:46.571Z,6.80
2018-02-19T12:00:17.577Z,6.88
2018-02-19T12:02:48.621Z,7.12
2018-02-19T12:05:19.633Z,6.98
2018-02-19T12:07:50.599Z,6.88
2018-02-19T12:10:21.699Z,7.02
2018-02-19T12:12:52.659Z,7.08
2018-02-19T12:15:23.710Z,6.97
2018-02-19T12:17:54.750Z,6.97
2018-02-19T12:20:25.773Z,7.13
2018-02-19T12:22:56.791Z,7.19
2018-02-19T12:25:27.815Z,7.19
2018-02-19T12:27:58.831Z,7.24
2018-02-19T12:30:29.812Z,7.16
2018-02-19T12:33:00.871Z,6.90
2018-02-19T12:35:31.925Z,6.77
2018-02-19T12:38:02.960Z,6.63
2018-02-19T12:40:33.992Z,6.63
2018-02-19T12:43:05.021Z,6.55
2018-02-19T12:45:36.008Z,6.74
2018-02-19T12:48:07.064Z,6.76
2018-02-19T12:50:38.088Z,6.50
2018-02-19T12:53:09.122Z,6.56
2018-02-19T12:55:40.143Z,6.46
2018-02-19T12:58:11.130Z,6.13
2018-02-19T13:00:42.155Z,6.08
2018-02-19T13:03:13.179Z,6.27
2018-02-19T13:05:44.197Z,6.45
2018-02-19T13:08:15.191Z,6.31
2018-02-19T13:10:46.202Z,6.31
2018-02-19T13:13:17.152Z,6.19
2018-02-19T13:15:48.143Z,6.08
2018-02-19T13:18:19.139Z,6.32
2018-02-19T13:20:50.160Z,6.52
2018-02-19T13:23:21.170Z,6.74
2018-02-19T13:25:52.187Z,6.85
2018-02-19T13:28:23.192Z,6.71
2018-02-19T13:30:54.226Z,6.47
2018-02-19T13:33:25.246Z,6.07
2018-02-19T13:35:56.255Z,5.97
2018-02-19T13:38:27.240Z,6.12
2018-02-19T13:40:59.293Z,6.42
2018-02-19T13:43:35.160Z,6.63
2018-02-19T13:46:06.207Z,6.87
2018-02-19T13:48:37.286Z,7.13
2018-02-19T13:51:08.299Z,7.43
2018-02-19T13:53:39.343Z,7.66
2018-02-19T13:56:10.305Z,7.68
2018-02-19T13:58:41.387Z,7.67
2018-02-19T14:01:12.456Z,7.59
2018-02-19T14:03:43.418Z,7.45
2018-02-19T14:06:14.456Z,7.29
2018-02-19T14:08:45.421Z,7.46
2018-02-19T14:11:16.460Z,7.56
2018-02-19T14:13:47.522Z,7.44
2018-02-19T14:16:18.504Z,6.97
2018-02-19T14:18:49.546Z,6.84
2018-02-19T14:21:20.549Z,6.90
2018-02-19T14:23:51.621Z,6.76
2018-02-19T14:26:22.625Z,6.65
2018-02-19T14:28:53.582Z,6.56
2018-02-19T14:31:24.642Z,6.59
2018-02-19T14:33:55.630Z,6.74
2018-02-19T14:36:26.703Z,6.81
2018-02-19T14:38:57.851Z,6.80
2018-02-19T14:41:28.861Z,6.82
2018-02-19T14:43:59.848Z,6.59
2018-02-19T14:46:30.816Z,6.64
2018-02-19T14:49:01.879Z,6.67
2018-02-19T14:51:32.886Z,6.60
2018-02-19T14:54:03.961Z,6.54
2018-02-19T14:56:35.005Z,6.62
2018-02-19T14:59:06.049Z,6.73
2018-02-19T15:01:37.063Z,6.62
2018-02-19T15:04:08.052Z,6.69
2018-02-19T15:06:39.076Z,6.72
2018-02-19T15:09:10.064Z,6.69
2018-02-19T15:11:41.121Z,6.42
2018-02-19T15:14:12.139Z,5.99
2018-02-19T15:16:50.313Z,5.96
2018-02-19T15:19:21.281Z,5.96
2018-02-19T15:21:59.296Z,5.81
2018-02-19T15:24:30.260Z,5.48
2018-02-19T15:27:01.296Z,5.34
2018-02-19T15:29:32.299Z,5.28
2018-02-19T15:32:03.333Z,5.30
2018-02-19T15:34:34.456Z,5.33
2018-02-19T15:37:05.433Z,5.30
2018-02-19T15:39:36.443Z,5.33
2018-02-19T15:42:07.419Z,5.46
2018-02-19T15:44:38.456Z,5.32
2018-02-19T15:47:09.433Z,5.28
2018-02-19T15:49:40.474Z,5.26
2018-02-19T15:52:11.430Z,5.23
2018-02-19T15:54:42.447Z,5.15
2018-02-19T15:57:13.431Z,5.09
2018-02-19T15:59:44.435Z,4.84
2018-02-19T16:02:15.484Z,4.73
2018-02-19T16:04:46.534Z,4.56
2018-02-19T16:07:17.558Z,4.53
2018-02-19T16:09:48.571Z,4.50
2018-02-19T16:12:19.528Z,4.41
2018-02-19T16:14:50.522Z,4.24
2018-02-19T16:17:21.521Z,4.10
2018-02-19T16:19:52.497Z,4.16
2018-02-19T16:22:23.516Z,4.15
2018-02-19T16:24:54.511Z,4.16
2018-02-19T16:27:25.569Z,4.18
2018-02-19T16:29:56.557Z,4.10
2018-02-19T16:32:27.585Z,4.03
2018-02-19T16:34:58.632Z,3.99
2018-02-19T16:37:29.670Z,3.91
2018-02-19T16:40:00.682Z,3.85
2018-02-19T16:42:31.664Z,3.80
2018-02-19T16:45:02.768Z,3.79
2018-02-19T16:47:33.699Z,3.67
2018-02-19T16:50:04.692Z,3.60
2018-02-19T16:52:35.718Z,3.55
2018-02-19T16:55:06.718Z,3.52
2018-02-19T16:57:37.760Z,3.50
2018-02-19T17:00:08.786Z,3.52
2018-02-19T17:02:39.797Z,3.61
2018-02-19T17:05:10.831Z,3.60
2018-02-19T17:07:41.884Z,3.67
2018-02-19T17:10:12.881Z,3.63
2018-02-19T17:12:43.888Z,3.58
2018-02-19T17:15:14.905Z,3.51
2018-02-19T17:17:45.903Z,3.49
2018-02-19T17:20:16.952Z,3.51
2018-02-19T17:22:47.934Z,3.48
2018-02-19T17:25:19.017Z,3.41
2018-02-19T17:27:50.047Z,3.45
2018-02-19T17:30:21.085Z,3.45
2018-02-19T17:32:52.144Z,3.39
2018-02-19T17:35:30.252Z,3.32
2018-02-19T17:38:01.301Z,3.27
2018-02-19T17:40:33.128Z,3.28
2018-02-19T17:43:04.177Z,3.30
2018-02-19T17:45:35.223Z,3.40
2018-02-19T17:48:06.250Z,3.39
2018-02-19T17:50:37.261Z,3.28
2018-02-19T17:53:08.264Z,3.23
2018-02-19T17:55:39.257Z,3.28
2018-02-19T17:58:10.313Z,3.32
2018-02-19T18:00:41.335Z,3.37
2018-02-19T18:03:12.411Z,3.30
2018-02-19T18:05:43.477Z,3.23
2018-02-19T18:08:14.510Z,3.08
2018-02-19T18:10:47.070Z,2.95
2018-02-19T18:13:18.037Z,2.86
2018-02-19T18:15:49.655Z,2.71
2018-02-19T18:18:20.659Z,2.58
2018-02-19T18:20:51.640Z,2.47
2018-02-19T18:23:22.618Z,2.39
2018-02-19T18:25:53.572Z,2.33
2018-02-19T18:28:24.591Z,2.32
2018-02-19T18:30:55.596Z,2.36
2018-02-19T18:33:26.629Z,2.35
2018-02-19T18:35:57.645Z,2.30
2018-02-19T18:38:28.649Z,2.18
2018-02-19T18:40:59.684Z,2.12
2018-02-19T18:43:31.014Z,2.11
2018-02-19T18:46:02.270Z,2.10
2018-02-19T18:48:33.313Z,2.09
2018-02-19T18:51:04.340Z,2.11
2018-02-19T18:53:35.324Z,2.18
2018-02-19T18:56:06.349Z,2.24
2018-02-19T18:58:37.312Z,2.26
2018-02-19T19:01:09.652Z,2.24
2018-02-19T19:03:40.674Z,2.27
2018-02-19T19:06:11.690Z,2.18
2018-02-19T19:08:55.155Z,2.17
2018-02-19T19:11:26.157Z,2.16
2018-02-19T19:13:57.177Z,2.19
2018-02-19T19:16:28.165Z,2.20
2018-02-19T19:18:59.154Z,2.17
2018-02-19T19:21:30.136Z,2.11
2018-02-19T19:24:01.143Z,2.07
2018-02-19T19:26:32.126Z,2.04
2018-02-19T19:29:03.943Z,1.99
2018-02-19T19:31:35.028Z,2.03
2018-02-19T19:34:06.023Z,2.01
2018-02-19T19:36:37.031Z,2.09
2018-02-19T19:39:08.006Z,2.13
2018-02-19T19:41:39.045Z,2.16
2018-02-19T19:44:10.120Z,2.22
2018-02-19T19:46:41.073Z,2.22
2018-02-19T19:49:12.104Z,2.30
2018-02-19T19:51:43.122Z,2.41
2018-02-19T19:54:14.182Z,2.47
2018-02-19T19:56:45.199Z,2.56
2018-02-19T19:59:16.222Z,2.54
2018-02-19T20:01:47.185Z,2.57
2018-02-19T20:04:18.252Z,2.60
2018-02-19T20:06:49.245Z,2.64
2018-02-19T20:09:20.248Z,2.68
2018-02-19T20:11:51.197Z,2.77
2018-02-19T20:14:22.241Z,2.85
2018-02-19T20:16:53.241Z,2.87
2018-02-19T20:19:24.330Z,2.86
2018-02-19T20:21:55.365Z,2.92
2018-02-19T20:24:26.372Z,2.99
2018-02-19T20:26:57.489Z,3.04
2018-02-19T20:29:28.451Z,3.11
2018-02-19T20:31:59.457Z,3.12
2018-02-19T20:34:30.518Z,3.13
2018-02-19T20:37:01.590Z,3.18
2018-02-19T20:39:32.595Z,3.17
2018-02-19T20:42:03.634Z,3.24
2018-02-19T20:44:34.610Z,3.17
2018-02-19T20:47:05.729Z,3.09
2018-02-19T20:49:36.730Z,3.04
2018-02-19T20:52:07.771Z,2.71
2018-02-19T20:54:38.835Z,2.58
2018-02-19T20:57:09.917Z,2.65
2018-02-19T20:59:41.218Z,2.70
2018-02-19T21:02:12.262Z,2.70
2018-02-19T21:04:43.208Z,2.63
2018-02-19T21:07:14.240Z,2.49
2018-02-19T21:09:45.241Z,2.38
2018-02-19T21:12:16.291Z,2.34
2018-02-19T21:14:47.280Z,2.35
2018-02-19T21:17:18.292Z,2.47
2018-02-19T21:19:49.299Z,2.63
2018-02-19T21:22:20.315Z,2.63
2018-02-19T21:24:51.297Z,2.68
2018-02-19T21:27:22.322Z,2.76
2018-02-19T21:29:53.335Z,2.78
2018-02-19T21:32:24.353Z,2.62
2018-02-19T21:34:55.366Z,2.52
2018-02-19T21:37:26.405Z,2.43
2018-02-19T21:39:57.416Z,2.46
2018-02-19T21:42:28.397Z,2.37
2018-02-19T21:44:59.618Z,2.26
2018-02-19T21:47:30.594Z,2.25
2018-02-19T21:50:01.646Z,2.24
2018-02-19T21:52:32.673Z,2.21
2018-02-19T21:55:03.758Z,2.16
2018-02-19T21:57:34.735Z,2.07
2018-02-19T22:00:05.764Z,2.01
2018-02-19T22:02:37.489Z,2.03
2018-02-19T22:05:08.872Z,2.08
2018-02-19T22:07:39.861Z,2.14
2018-02-19T22:10:10.899Z,2.21
2018-02-19T22:12:41.922Z,2.22
2018-02-19T22:15:12.931Z,2.21
2018-02-19T22:17:43.949Z,2.23
2018-02-19T22:20:14.986Z,2.28
2018-02-19T22:22:45.976Z,2.27
2018-02-19T22:25:16.963Z,2.31
2018-02-19T22:27:47.934Z,2.33
2018-02-19T22:30:19.007Z,2.33
2018-02-19T22:32:49.989Z,2.36
2018-02-19T22:35:21.046Z,2.44
2018-02-19T22:37:52.027Z,2.51
2018-02-19T22:40:23.304Z,2.57
2018-02-19T22:42:54.337Z,2.64
2018-02-19T22:45:25.350Z,2.66
2018-02-19T22:47:56.401Z,2.67
2018-02-19T22:50:27.350Z,2.70
2018-02-19T22:52:58.366Z,2.72
2018-02-19T22:55:29.370Z,2.75
2018-02-19T22:58:00.363Z,2.71
2018-02-19T23:00:31.396Z,2.75
2018-02-19T23:03:02.423Z,2.79
2018-02-19T23:05:33.597Z,2.77
2018-02-19T23:08:04.615Z,2.51
2018-02-19T23:10:35.591Z,2.37
2018-02-19T23:13:06.613Z,2.41
2018-02-19T23:15:37.582Z,2.55
2018-02-19T23:18:08.624Z,2.64
2018-02-19T23:20:39.602Z,2.68
2018-02-19T23:23:10.643Z,2.58
2018-02-19T23:25:41.646Z,2.41
2018-02-19T23:28:12.642Z,2.25
2018-02-19T23:30:43.622Z,2.17
2018-02-19T23:33:14.678Z,2.15
2018-02-19T23:35:45.664Z,2.29
2018-02-19T23:38:16.710Z,2.41
2018-02-19T23:40:47.881Z,2.48
2018-02-19T23:43:18.938Z,2.47
2018-02-19T23:45:49.946Z,2.54
2018-02-19T23:48:20.975Z,2.56
2018-02-19T23:50:51.945Z,2.59
2018-02-19T23:53:22.946Z,2.56
2018-02-19T23:55:53.966Z,2.56
2018-02-19T23:58:24.945Z,2.50
